sensor_id;sensor_type;location;lat;lon;timestamp;P1;durP1;ratioP1;P2;durP2;ratioP2
70067;SDS011;57425;51.616;6.680;2023-07-24T00:01:18;1.65;;;1.02;;
70067;SDS011;57425;51.616;6.680;2023-07-24T00:03:44;1.05;;;0.95;;
70067;SDS011;57425;51.616;6.680;2023-07-24T00:06:10;0.82;;;0.57;;
70067;SDS011;57425;51.616;6.680;2023-07-24T00:08:35;4.45;;;1.17;;
70067;SDS011;57425;51.616;6.680;2023-07-24T00:11:01;4.85;;;1.73;;
70067;SDS011;57425;51.616;6.680;2023-07-24T00:13:30;2.33;;;1.15;;
70067;SDS011;57425;51.616;6.680;2023-07-24T00:15:58;3.38;;;0.80;;
70067;SDS011;57425;51.616;6.680;2023-07-24T00:18:25;4.78;;;1.27;;
70067;SDS011;57425;51.616;6.680;2023-07-24T00:20:51;7.07;;;1.00;;
70067;SDS011;57425;51.616;6.680;2023-07-24T00:23:16;2.05;;;0.90;;
70067;SDS011;57425;51.616;6.680;2023-07-24T00:25:42;2.97;;;0.80;;
70067;SDS011;57425;51.616;6.680;2023-07-24T00:28:07;7.03;;;1.15;;
70067;SDS011;57425;51.616;6.680;2023-07-24T00:30:33;2.90;;;1.60;;
70067;SDS011;57425;51.616;6.680;2023-07-24T00:32:59;2.15;;;1.10;;
70067;SDS011;57425;51.616;6.680;2023-07-24T00:35:25;1.90;;;0.90;;
70067;SDS011;57425;51.616;6.680;2023-07-24T00:37:51;1.48;;;0.80;;
70067;SDS011;57425;51.616;6.680;2023-07-24T00:40:17;1.90;;;0.95;;
70067;SDS011;57425;51.616;6.680;2023-07-24T00:42:46;1.48;;;1.02;;
70067;SDS011;57425;51.616;6.680;2023-07-24T00:45:12;1.88;;;1.40;;
70067;SDS011;57425;51.616;6.680;2023-07-24T00:47:38;3.90;;;1.20;;
70067;SDS011;57425;51.616;6.680;2023-07-24T00:50:04;1.60;;;1.25;;
70067;SDS011;57425;51.616;6.680;2023-07-24T00:52:30;4.38;;;1.40;;
70067;SDS011;57425;51.616;6.680;2023-07-24T00:54:56;1.90;;;1.20;;
70067;SDS011;57425;51.616;6.680;2023-07-24T00:57:22;2.05;;;1.13;;
70067;SDS011;57425;51.616;6.680;2023-07-24T00:59:48;2.08;;;1.10;;
70067;SDS011;57425;51.616;6.680;2023-07-24T01:02:14;2.13;;;1.20;;
70067;SDS011;57425;51.616;6.680;2023-07-24T01:04:39;3.28;;;1.20;;
70067;SDS011;57425;51.616;6.680;2023-07-24T01:07:05;3.15;;;1.42;;
70067;SDS011;57425;51.616;6.680;2023-07-24T01:09:31;4.80;;;1.20;;
70067;SDS011;57425;51.616;6.680;2023-07-24T01:11:59;5.05;;;1.23;;
70067;SDS011;57425;51.616;6.680;2023-07-24T01:17:12;3.15;;;1.60;;
70067;SDS011;57425;51.616;6.680;2023-07-24T01:19:43;1.80;;;1.23;;
70067;SDS011;57425;51.616;6.680;2023-07-24T01:22:32;2.58;;;1.30;;
70067;SDS011;57425;51.616;6.680;2023-07-24T01:25:33;12.65;;;1.40;;
70067;SDS011;57425;51.616;6.680;2023-07-24T01:28:08;2.97;;;1.65;;
70067;SDS011;57425;51.616;6.680;2023-07-24T01:30:34;8.68;;;1.55;;
70067;SDS011;57425;51.616;6.680;2023-07-24T01:33:00;1.83;;;1.40;;
70067;SDS011;57425;51.616;6.680;2023-07-24T01:35:26;3.60;;;1.60;;
70067;SDS011;57425;51.616;6.680;2023-07-24T01:37:54;3.85;;;1.52;;
70067;SDS011;57425;51.616;6.680;2023-07-24T01:40:22;6.00;;;1.15;;
70067;SDS011;57425;51.616;6.680;2023-07-24T01:42:49;4.07;;;1.40;;
70067;SDS011;57425;51.616;6.680;2023-07-24T01:45:15;3.13;;;1.25;;
70067;SDS011;57425;51.616;6.680;2023-07-24T01:47:41;3.28;;;1.50;;
70067;SDS011;57425;51.616;6.680;2023-07-24T01:50:06;3.13;;;1.63;;
70067;SDS011;57425;51.616;6.680;2023-07-24T01:52:32;2.38;;;1.45;;
70067;SDS011;57425;51.616;6.680;2023-07-24T01:54:58;9.95;;;1.55;;
70067;SDS011;57425;51.616;6.680;2023-07-24T01:57:24;2.47;;;1.27;;
70067;SDS011;57425;51.616;6.680;2023-07-24T01:59:49;3.20;;;1.20;;
70067;SDS011;57425;51.616;6.680;2023-07-24T02:02:15;9.43;;;2.42;;
70067;SDS011;57425;51.616;6.680;2023-07-24T02:04:41;4.53;;;1.48;;
70067;SDS011;57425;51.616;6.680;2023-07-24T02:07:06;3.65;;;1.80;;
70067;SDS011;57425;51.616;6.680;2023-07-24T02:09:32;4.55;;;2.15;;
70067;SDS011;57425;51.616;6.680;2023-07-24T02:11:57;3.83;;;1.70;;
70067;SDS011;57425;51.616;6.680;2023-07-24T02:14:23;1.90;;;1.38;;
70067;SDS011;57425;51.616;6.680;2023-07-24T02:16:49;8.43;;;1.85;;
70067;SDS011;57425;51.616;6.680;2023-07-24T02:19:15;3.38;;;1.48;;
70067;SDS011;57425;51.616;6.680;2023-07-24T02:21:41;2.28;;;1.13;;
70067;SDS011;57425;51.616;6.680;2023-07-24T02:24:07;3.38;;;1.42;;
70067;SDS011;57425;51.616;6.680;2023-07-24T02:26:33;2.92;;;1.60;;
70067;SDS011;57425;51.616;6.680;2023-07-24T02:28:58;3.80;;;1.73;;
70067;SDS011;57425;51.616;6.680;2023-07-24T02:31:24;8.65;;;1.85;;
70067;SDS011;57425;51.616;6.680;2023-07-24T02:33:50;2.90;;;1.50;;
70067;SDS011;57425;51.616;6.680;2023-07-24T02:36:16;2.03;;;1.38;;
70067;SDS011;57425;51.616;6.680;2023-07-24T02:38:41;2.45;;;1.33;;
70067;SDS011;57425;51.616;6.680;2023-07-24T02:41:07;4.38;;;1.40;;
70067;SDS011;57425;51.616;6.680;2023-07-24T02:43:34;2.40;;;1.58;;
70067;SDS011;57425;51.616;6.680;2023-07-24T02:46:00;5.07;;;2.00;;
70067;SDS011;57425;51.616;6.680;2023-07-24T02:48:27;4.40;;;1.55;;
70067;SDS011;57425;51.616;6.680;2023-07-24T02:50:53;3.33;;;1.83;;
70067;SDS011;57425;51.616;6.680;2023-07-24T02:53:19;6.00;;;1.75;;
70067;SDS011;57425;51.616;6.680;2023-07-24T02:55:45;3.75;;;1.88;;
70067;SDS011;57425;51.616;6.680;2023-07-24T02:58:12;2.55;;;1.40;;
70067;SDS011;57425;51.616;6.680;2023-07-24T03:00:38;1.92;;;1.52;;
70067;SDS011;57425;51.616;6.680;2023-07-24T03:03:04;1.80;;;1.40;;
70067;SDS011;57425;51.616;6.680;2023-07-24T03:05:30;2.40;;;1.75;;
70067;SDS011;57425;51.616;6.680;2023-07-24T03:07:56;3.95;;;1.55;;
70067;SDS011;57425;51.616;6.680;2023-07-24T03:10:22;3.30;;;1.42;;
70067;SDS011;57425;51.616;6.680;2023-07-24T03:12:48;4.15;;;2.15;;
70067;SDS011;57425;51.616;6.680;2023-07-24T03:15:14;2.17;;;1.58;;
70067;SDS011;57425;51.616;6.680;2023-07-24T03:17:39;2.40;;;1.60;;
70067;SDS011;57425;51.616;6.680;2023-07-24T03:20:09;3.28;;;1.73;;
70067;SDS011;57425;51.616;6.680;2023-07-24T03:22:38;5.78;;;2.05;;
70067;SDS011;57425;51.616;6.680;2023-07-24T03:25:06;3.67;;;1.40;;
70067;SDS011;57425;51.616;6.680;2023-07-24T03:27:32;4.30;;;2.08;;
70067;SDS011;57425;51.616;6.680;2023-07-24T03:29:57;6.57;;;1.92;;
70067;SDS011;57425;51.616;6.680;2023-07-24T03:32:23;11.00;;;2.22;;
70067;SDS011;57425;51.616;6.680;2023-07-24T03:34:49;5.65;;;2.05;;
70067;SDS011;57425;51.616;6.680;2023-07-24T03:37:14;6.93;;;1.75;;
70067;SDS011;57425;51.616;6.680;2023-07-24T03:39:41;4.95;;;2.20;;
70067;SDS011;57425;51.616;6.680;2023-07-24T03:42:09;4.43;;;2.55;;
70067;SDS011;57425;51.616;6.680;2023-07-24T03:44:35;2.63;;;1.67;;
70067;SDS011;57425;51.616;6.680;2023-07-24T03:47:00;2.78;;;1.52;;
70067;SDS011;57425;51.616;6.680;2023-07-24T03:49:26;3.28;;;2.38;;
70067;SDS011;57425;51.616;6.680;2023-07-24T03:51:52;6.55;;;1.67;;
70067;SDS011;57425;51.616;6.680;2023-07-24T03:54:17;3.28;;;2.05;;
70067;SDS011;57425;51.616;6.680;2023-07-24T03:56:43;4.78;;;1.42;;
70067;SDS011;57425;51.616;6.680;2023-07-24T03:59:08;4.28;;;1.92;;
70067;SDS011;57425;51.616;6.680;2023-07-24T04:01:34;6.60;;;1.90;;
70067;SDS011;57425;51.616;6.680;2023-07-24T04:03:59;7.07;;;1.75;;
70067;SDS011;57425;51.616;6.680;2023-07-24T04:06:25;4.90;;;1.77;;
70067;SDS011;57425;51.616;6.680;2023-07-24T04:08:51;4.25;;;2.00;;
70067;SDS011;57425;51.616;6.680;2023-07-24T04:11:16;8.18;;;1.52;;
70067;SDS011;57425;51.616;6.680;2023-07-24T04:13:42;14.20;;;2.38;;
70067;SDS011;57425;51.616;6.680;2023-07-24T04:16:07;4.13;;;2.33;;
70067;SDS011;57425;51.616;6.680;2023-07-24T04:18:33;5.18;;;1.50;;
70067;SDS011;57425;51.616;6.680;2023-07-24T04:20:59;3.28;;;1.67;;
70067;SDS011;57425;51.616;6.680;2023-07-24T04:23:24;3.78;;;1.92;;
70067;SDS011;57425;51.616;6.680;2023-07-24T04:25:50;3.80;;;1.70;;
70067;SDS011;57425;51.616;6.680;2023-07-24T04:28:15;2.53;;;1.40;;
70067;SDS011;57425;51.616;6.680;2023-07-24T04:30:41;3.20;;;1.30;;
70067;SDS011;57425;51.616;6.680;2023-07-24T04:33:06;3.92;;;1.55;;
70067;SDS011;57425;51.616;6.680;2023-07-24T04:35:32;10.60;;;2.65;;
70067;SDS011;57425;51.616;6.680;2023-07-24T04:37:58;6.70;;;2.35;;
70067;SDS011;57425;51.616;6.680;2023-07-24T04:40:24;4.55;;;1.83;;
70067;SDS011;57425;51.616;6.680;2023-07-24T04:42:49;2.63;;;1.60;;
70067;SDS011;57425;51.616;6.680;2023-07-24T04:45:15;6.25;;;1.92;;
70067;SDS011;57425;51.616;6.680;2023-07-24T04:47:41;2.85;;;1.55;;
70067;SDS011;57425;51.616;6.680;2023-07-24T04:50:07;5.18;;;1.73;;
70067;SDS011;57425;51.616;6.680;2023-07-24T04:52:33;3.42;;;2.00;;
70067;SDS011;57425;51.616;6.680;2023-07-24T04:54:59;4.45;;;1.70;;
70067;SDS011;57425;51.616;6.680;2023-07-24T04:57:25;4.75;;;2.08;;
70067;SDS011;57425;51.616;6.680;2023-07-24T04:59:50;7.50;;;1.83;;
70067;SDS011;57425;51.616;6.680;2023-07-24T05:02:16;5.53;;;2.42;;
70067;SDS011;57425;51.616;6.680;2023-07-24T05:04:41;3.97;;;2.08;;
70067;SDS011;57425;51.616;6.680;2023-07-24T05:07:07;4.40;;;1.90;;
70067;SDS011;57425;51.616;6.680;2023-07-24T05:09:33;6.10;;;2.05;;
70067;SDS011;57425;51.616;6.680;2023-07-24T05:11:58;10.98;;;2.85;;
70067;SDS011;57425;51.616;6.680;2023-07-24T05:14:24;4.82;;;2.00;;
70067;SDS011;57425;51.616;6.680;2023-07-24T05:16:49;3.65;;;2.00;;
70067;SDS011;57425;51.616;6.680;2023-07-24T05:19:15;3.33;;;1.42;;
70067;SDS011;57425;51.616;6.680;2023-07-24T05:21:41;2.53;;;1.50;;
70067;SDS011;57425;51.616;6.680;2023-07-24T05:24:06;3.47;;;1.70;;
70067;SDS011;57425;51.616;6.680;2023-07-24T05:26:32;4.95;;;1.83;;
70067;SDS011;57425;51.616;6.680;2023-07-24T05:28:57;4.30;;;1.60;;
70067;SDS011;57425;51.616;6.680;2023-07-24T05:31:23;4.90;;;1.83;;
70067;SDS011;57425;51.616;6.680;2023-07-24T05:33:49;3.55;;;2.17;;
70067;SDS011;57425;51.616;6.680;2023-07-24T05:36:14;3.47;;;1.98;;
70067;SDS011;57425;51.616;6.680;2023-07-24T05:38:40;3.40;;;1.60;;
70067;SDS011;57425;51.616;6.680;2023-07-24T05:41:05;4.70;;;1.88;;
70067;SDS011;57425;51.616;6.680;2023-07-24T05:43:31;5.10;;;1.83;;
70067;SDS011;57425;51.616;6.680;2023-07-24T05:45:57;3.97;;;1.60;;
70067;SDS011;57425;51.616;6.680;2023-07-24T05:48:23;2.60;;;1.27;;
70067;SDS011;57425;51.616;6.680;2023-07-24T05:50:49;2.88;;;1.25;;
70067;SDS011;57425;51.616;6.680;2023-07-24T05:53:15;2.08;;;1.15;;
70067;SDS011;57425;51.616;6.680;2023-07-24T05:55:42;3.78;;;1.70;;
70067;SDS011;57425;51.616;6.680;2023-07-24T05:58:08;3.45;;;1.65;;
70067;SDS011;57425;51.616;6.680;2023-07-24T06:00:34;2.38;;;0.95;;
70067;SDS011;57425;51.616;6.680;2023-07-24T06:03:01;1.67;;;1.02;;
70067;SDS011;57425;51.616;6.680;2023-07-24T06:05:27;2.00;;;0.77;;
70067;SDS011;57425;51.616;6.680;2023-07-24T06:07:53;2.00;;;1.08;;
70067;SDS011;57425;51.616;6.680;2023-07-24T06:10:20;2.78;;;0.93;;
70067;SDS011;57425;51.616;6.680;2023-07-24T06:12:46;1.45;;;0.93;;
70067;SDS011;57425;51.616;6.680;2023-07-24T06:15:12;1.48;;;1.13;;
70067;SDS011;57425;51.616;6.680;2023-07-24T06:17:38;1.63;;;0.95;;
70067;SDS011;57425;51.616;6.680;2023-07-24T06:20:04;1.40;;;0.70;;
70067;SDS011;57425;51.616;6.680;2023-07-24T06:22:31;1.50;;;0.70;;
70067;SDS011;57425;51.616;6.680;2023-07-24T06:24:56;1.40;;;0.50;;
70067;SDS011;57425;51.616;6.680;2023-07-24T06:27:22;1.40;;;0.57;;
70067;SDS011;57425;51.616;6.680;2023-07-24T06:29:48;1.20;;;0.70;;
70067;SDS011;57425;51.616;6.680;2023-07-24T06:32:13;1.77;;;0.88;;
70067;SDS011;57425;51.616;6.680;2023-07-24T06:34:39;1.23;;;0.75;;
70067;SDS011;57425;51.616;6.680;2023-07-24T06:37:04;1.77;;;1.20;;
70067;SDS011;57425;51.616;6.680;2023-07-24T06:39:31;3.83;;;1.55;;
70067;SDS011;57425;51.616;6.680;2023-07-24T06:41:58;4.20;;;1.63;;
70067;SDS011;57425;51.616;6.680;2023-07-24T06:44:24;2.15;;;1.23;;
70067;SDS011;57425;51.616;6.680;2023-07-24T06:46:49;1.30;;;1.10;;
70067;SDS011;57425;51.616;6.680;2023-07-24T06:49:15;1.15;;;0.90;;
70067;SDS011;57425;51.616;6.680;2023-07-24T06:51:40;1.63;;;1.15;;
70067;SDS011;57425;51.616;6.680;2023-07-24T06:54:06;0.95;;;0.80;;
70067;SDS011;57425;51.616;6.680;2023-07-24T06:56:32;1.42;;;1.00;;
70067;SDS011;57425;51.616;6.680;2023-07-24T06:58:57;1.88;;;1.00;;
70067;SDS011;57425;51.616;6.680;2023-07-24T07:01:24;1.85;;;1.10;;
70067;SDS011;57425;51.616;6.680;2023-07-24T07:03:49;1.55;;;1.00;;
70067;SDS011;57425;51.616;6.680;2023-07-24T07:06:15;2.38;;;1.33;;
70067;SDS011;57425;51.616;6.680;2023-07-24T07:08:41;4.53;;;1.10;;
70067;SDS011;57425;51.616;6.680;2023-07-24T07:11:06;0.82;;;0.73;;
70067;SDS011;57425;51.616;6.680;2023-07-24T07:13:32;2.22;;;1.38;;
70067;SDS011;57425;51.616;6.680;2023-07-24T07:15:58;2.28;;;1.23;;
70067;SDS011;57425;51.616;6.680;2023-07-24T07:18:23;2.05;;;1.10;;
70067;SDS011;57425;51.616;6.680;2023-07-24T07:20:49;2.13;;;1.20;;
70067;SDS011;57425;51.616;6.680;2023-07-24T07:23:16;1.20;;;0.90;;
70067;SDS011;57425;51.616;6.680;2023-07-24T07:25:42;1.50;;;1.10;;
70067;SDS011;57425;51.616;6.680;2023-07-24T07:28:11;2.13;;;1.10;;
70067;SDS011;57425;51.616;6.680;2023-07-24T07:30:37;2.17;;;1.30;;
70067;SDS011;57425;51.616;6.680;2023-07-24T07:33:03;2.60;;;1.30;;
70067;SDS011;57425;51.616;6.680;2023-07-24T07:35:31;2.17;;;1.30;;
70067;SDS011;57425;51.616;6.680;2023-07-24T07:37:57;2.05;;;1.30;;
70067;SDS011;57425;51.616;6.680;2023-07-24T07:40:23;1.02;;;0.90;;
70067;SDS011;57425;51.616;6.680;2023-07-24T07:42:49;1.45;;;1.20;;
70067;SDS011;57425;51.616;6.680;2023-07-24T07:45:15;2.95;;;1.10;;
70067;SDS011;57425;51.616;6.680;2023-07-24T07:47:40;3.15;;;1.20;;
70067;SDS011;57425;51.616;6.680;2023-07-24T07:50:06;4.35;;;1.05;;
70067;SDS011;57425;51.616;6.680;2023-07-24T07:52:32;1.13;;;0.88;;
70067;SDS011;57425;51.616;6.680;2023-07-24T07:54:57;3.53;;;1.05;;
70067;SDS011;57425;51.616;6.680;2023-07-24T07:57:23;1.00;;;0.70;;
70067;SDS011;57425;51.616;6.680;2023-07-24T07:59:48;1.55;;;0.90;;
70067;SDS011;57425;51.616;6.680;2023-07-24T08:02:14;1.20;;;0.90;;
70067;SDS011;57425;51.616;6.680;2023-07-24T08:04:41;1.35;;;1.10;;
70067;SDS011;57425;51.616;6.680;2023-07-24T08:07:06;1.42;;;1.30;;
70067;SDS011;57425;51.616;6.680;2023-07-24T08:09:32;2.13;;;1.30;;
70067;SDS011;57425;51.616;6.680;2023-07-24T08:11:58;2.40;;;1.13;;
70067;SDS011;57425;51.616;6.680;2023-07-24T08:14:24;2.22;;;1.40;;
70067;SDS011;57425;51.616;6.680;2023-07-24T08:16:50;1.35;;;1.00;;
70067;SDS011;57425;51.616;6.680;2023-07-24T08:19:17;1.83;;;1.60;;
70067;SDS011;57425;51.616;6.680;2023-07-24T08:21:42;6.07;;;2.10;;
70067;SDS011;57425;51.616;6.680;2023-07-24T08:24:08;2.95;;;1.52;;
70067;SDS011;57425;51.616;6.680;2023-07-24T08:26:33;1.98;;;1.40;;
70067;SDS011;57425;51.616;6.680;2023-07-24T08:28:59;4.45;;;2.28;;
70067;SDS011;57425;51.616;6.680;2023-07-24T08:31:25;2.83;;;1.90;;
70067;SDS011;57425;51.616;6.680;2023-07-24T08:33:50;5.38;;;1.67;;
70067;SDS011;57425;51.616;6.680;2023-07-24T08:36:16;3.00;;;1.52;;
70067;SDS011;57425;51.616;6.680;2023-07-24T08:38:41;3.35;;;2.00;;
70067;SDS011;57425;51.616;6.680;2023-07-24T08:43:35;2.70;;;1.48;;
70067;SDS011;57425;51.616;6.680;2023-07-24T08:46:01;2.17;;;1.58;;
70067;SDS011;57425;51.616;6.680;2023-07-24T08:48:41;2.55;;;1.80;;
70067;SDS011;57425;51.616;6.680;2023-07-24T08:51:09;2.33;;;1.50;;
70067;SDS011;57425;51.616;6.680;2023-07-24T08:53:37;3.28;;;1.60;;
70067;SDS011;57425;51.616;6.680;2023-07-24T08:56:04;1.92;;;1.20;;
70067;SDS011;57425;51.616;6.680;2023-07-24T08:58:31;4.88;;;1.23;;
70067;SDS011;57425;51.616;6.680;2023-07-24T09:00:57;2.60;;;1.33;;
70067;SDS011;57425;51.616;6.680;2023-07-24T09:03:25;1.40;;;0.90;;
70067;SDS011;57425;51.616;6.680;2023-07-24T09:05:51;2.38;;;1.48;;
70067;SDS011;57425;51.616;6.680;2023-07-24T09:08:16;2.10;;;1.33;;
70067;SDS011;57425;51.616;6.680;2023-07-24T09:10:53;1.73;;;1.10;;
70067;SDS011;57425;51.616;6.680;2023-07-24T09:13:18;2.15;;;1.33;;
70067;SDS011;57425;51.616;6.680;2023-07-24T09:15:44;2.15;;;1.27;;
70067;SDS011;57425;51.616;6.680;2023-07-24T09:18:10;1.27;;;1.10;;
70067;SDS011;57425;51.616;6.680;2023-07-24T09:20:39;1.98;;;1.00;;
70067;SDS011;57425;51.616;6.680;2023-07-24T09:23:09;1.38;;;0.98;;
70067;SDS011;57425;51.616;6.680;2023-07-24T09:25:36;1.88;;;1.15;;
70067;SDS011;57425;51.616;6.680;2023-07-24T09:28:12;2.55;;;1.48;;
70067;SDS011;57425;51.616;6.680;2023-07-24T09:30:39;1.45;;;1.00;;
70067;SDS011;57425;51.616;6.680;2023-07-24T09:33:05;2.00;;;0.90;;
70067;SDS011;57425;51.616;6.680;2023-07-24T09:35:31;1.95;;;1.20;;
70067;SDS011;57425;51.616;6.680;2023-07-24T09:38:10;3.35;;;1.23;;
70067;SDS011;57425;51.616;6.680;2023-07-24T09:40:43;1.83;;;1.00;;
70067;SDS011;57425;51.616;6.680;2023-07-24T09:43:16;1.98;;;1.17;;
70067;SDS011;57425;51.616;6.680;2023-07-24T09:45:44;1.63;;;1.00;;
70067;SDS011;57425;51.616;6.680;2023-07-24T09:48:13;4.28;;;1.00;;
70067;SDS011;57425;51.616;6.680;2023-07-24T09:50:39;2.25;;;1.30;;
70067;SDS011;57425;51.616;6.680;2023-07-24T09:53:06;1.70;;;1.13;;
70067;SDS011;57425;51.616;6.680;2023-07-24T09:55:47;2.08;;;1.10;;
70067;SDS011;57425;51.616;6.680;2023-07-24T09:58:23;1.48;;;1.02;;
70067;SDS011;57425;51.616;6.680;2023-07-24T10:00:49;2.58;;;1.05;;
70067;SDS011;57425;51.616;6.680;2023-07-24T10:03:16;1.38;;;0.98;;
70067;SDS011;57425;51.616;6.680;2023-07-24T10:05:43;2.05;;;1.50;;
70067;SDS011;57425;51.616;6.680;2023-07-24T10:08:10;3.88;;;1.27;;
70067;SDS011;57425;51.616;6.680;2023-07-24T10:10:36;1.73;;;1.10;;
70067;SDS011;57425;51.616;6.680;2023-07-24T10:13:03;1.02;;;0.93;;
70067;SDS011;57425;51.616;6.680;2023-07-24T10:15:30;1.38;;;1.00;;
70067;SDS011;57425;51.616;6.680;2023-07-24T10:18:04;5.45;;;1.40;;
70067;SDS011;57425;51.616;6.680;2023-07-24T10:20:34;2.42;;;1.10;;
70067;SDS011;57425;51.616;6.680;2023-07-24T10:23:01;1.77;;;1.05;;
70067;SDS011;57425;51.616;6.680;2023-07-24T10:25:31;5.25;;;1.35;;
70067;SDS011;57425;51.616;6.680;2023-07-24T10:28:15;1.48;;;1.02;;
70067;SDS011;57425;51.616;6.680;2023-07-24T10:30:43;2.42;;;1.10;;
70067;SDS011;57425;51.616;6.680;2023-07-24T10:35:47;1.63;;;1.10;;
70067;SDS011;57425;51.616;6.680;2023-07-24T10:38:16;0.70;;;0.70;;
70067;SDS011;57425;51.616;6.680;2023-07-24T10:40:42;1.40;;;1.30;;
70067;SDS011;57425;51.616;6.680;2023-07-24T10:43:11;3.03;;;1.23;;
70067;SDS011;57425;51.616;6.680;2023-07-24T10:45:49;1.70;;;1.02;;
70067;SDS011;57425;51.616;6.680;2023-07-24T10:48:20;1.65;;;1.00;;
70067;SDS011;57425;51.616;6.680;2023-07-24T10:50:47;1.38;;;1.08;;
70067;SDS011;57425;51.616;6.680;2023-07-24T10:53:15;2.05;;;1.33;;
70067;SDS011;57425;51.616;6.680;2023-07-24T10:55:45;1.73;;;1.27;;
70067;SDS011;57425;51.616;6.680;2023-07-24T10:58:12;2.45;;;1.20;;
70067;SDS011;57425;51.616;6.680;2023-07-24T11:00:39;3.22;;;1.42;;
70067;SDS011;57425;51.616;6.680;2023-07-24T11:03:07;1.13;;;1.00;;
70067;SDS011;57425;51.616;6.680;2023-07-24T11:05:40;6.72;;;1.95;;
70067;SDS011;57425;51.616;6.680;2023-07-24T11:08:13;1.35;;;1.10;;
70067;SDS011;57425;51.616;6.680;2023-07-24T11:10:48;1.95;;;1.20;;
70067;SDS011;57425;51.616;6.680;2023-07-24T11:13:16;1.33;;;0.95;;
70067;SDS011;57425;51.616;6.680;2023-07-24T11:15:44;2.28;;;0.93;;
70067;SDS011;57425;51.616;6.680;2023-07-24T11:18:10;1.85;;;1.13;;
70067;SDS011;57425;51.616;6.680;2023-07-24T11:20:47;0.70;;;0.70;;
70067;SDS011;57425;51.616;6.680;2023-07-24T11:23:14;3.75;;;1.23;;
70067;SDS011;57425;51.616;6.680;2023-07-24T11:25:40;2.30;;;1.38;;
70067;SDS011;57425;51.616;6.680;2023-07-24T11:28:06;2.25;;;1.05;;
70067;SDS011;57425;51.616;6.680;2023-07-24T11:30:33;1.27;;;0.93;;
70067;SDS011;57425;51.616;6.680;2023-07-24T11:33:00;1.88;;;0.98;;
70067;SDS011;57425;51.616;6.680;2023-07-24T11:35:28;2.28;;;1.10;;
70067;SDS011;57425;51.616;6.680;2023-07-24T11:37:54;2.65;;;1.25;;
70067;SDS011;57425;51.616;6.680;2023-07-24T11:40:20;2.05;;;1.40;;
70067;SDS011;57425;51.616;6.680;2023-07-24T11:42:46;1.35;;;1.17;;
70067;SDS011;57425;51.616;6.680;2023-07-24T11:45:13;5.57;;;1.55;;
70067;SDS011;57425;51.616;6.680;2023-07-24T11:47:45;2.17;;;1.33;;
70067;SDS011;57425;51.616;6.680;2023-07-24T11:50:13;3.47;;;1.30;;
70067;SDS011;57425;51.616;6.680;2023-07-24T11:52:49;5.78;;;1.85;;
70067;SDS011;57425;51.616;6.680;2023-07-24T11:55:17;1.70;;;1.50;;
70067;SDS011;57425;51.616;6.680;2023-07-24T11:57:54;2.75;;;1.27;;
70067;SDS011;57425;51.616;6.680;2023-07-24T12:00:24;3.97;;;1.55;;
70067;SDS011;57425;51.616;6.680;2023-07-24T12:02:51;1.88;;;1.20;;
70067;SDS011;57425;51.616;6.680;2023-07-24T12:05:17;3.88;;;1.40;;
70067;SDS011;57425;51.616;6.680;2023-07-24T12:07:43;3.42;;;1.95;;
70067;SDS011;57425;51.616;6.680;2023-07-24T12:10:11;2.58;;;1.60;;
70067;SDS011;57425;51.616;6.680;2023-07-24T12:12:44;1.73;;;1.13;;
70067;SDS011;57425;51.616;6.680;2023-07-24T12:15:13;2.60;;;1.40;;
70067;SDS011;57425;51.616;6.680;2023-07-24T12:17:39;3.58;;;1.85;;
70067;SDS011;57425;51.616;6.680;2023-07-24T12:20:06;4.30;;;2.25;;
70067;SDS011;57425;51.616;6.680;2023-07-24T12:22:36;6.28;;;2.05;;
70067;SDS011;57425;51.616;6.680;2023-07-24T12:25:03;3.20;;;2.20;;
70067;SDS011;57425;51.616;6.680;2023-07-24T12:27:30;4.45;;;2.40;;
70067;SDS011;57425;51.616;6.680;2023-07-24T12:29:56;2.28;;;1.70;;
70067;SDS011;57425;51.616;6.680;2023-07-24T12:32:22;3.50;;;1.42;;
70067;SDS011;57425;51.616;6.680;2023-07-24T12:34:48;3.08;;;1.92;;
70067;SDS011;57425;51.616;6.680;2023-07-24T12:37:15;3.08;;;2.17;;
70067;SDS011;57425;51.616;6.680;2023-07-24T12:39:40;8.43;;;1.95;;
70067;SDS011;57425;51.616;6.680;2023-07-24T12:42:06;4.82;;;2.30;;
70067;SDS011;57425;51.616;6.680;2023-07-24T12:44:32;3.08;;;1.25;;
70067;SDS011;57425;51.616;6.680;2023-07-24T12:46:57;3.55;;;1.52;;
70067;SDS011;57425;51.616;6.680;2023-07-24T12:49:23;2.58;;;1.48;;
70067;SDS011;57425;51.616;6.680;2023-07-24T12:51:48;1.98;;;1.25;;
70067;SDS011;57425;51.616;6.680;2023-07-24T12:54:14;2.63;;;1.38;;
70067;SDS011;57425;51.616;6.680;2023-07-24T12:56:40;2.03;;;1.60;;
70067;SDS011;57425;51.616;6.680;2023-07-24T12:59:06;2.53;;;2.00;;
70067;SDS011;57425;51.616;6.680;2023-07-24T13:01:31;4.82;;;2.33;;
70067;SDS011;57425;51.616;6.680;2023-07-24T13:03:57;4.57;;;2.03;;
70067;SDS011;57425;51.616;6.680;2023-07-24T13:06:23;4.75;;;1.83;;
70067;SDS011;57425;51.616;6.680;2023-07-24T13:08:49;3.35;;;2.00;;
70067;SDS011;57425;51.616;6.680;2023-07-24T13:11:15;4.03;;;1.90;;
70067;SDS011;57425;51.616;6.680;2023-07-24T13:13:41;4.28;;;2.45;;
70067;SDS011;57425;51.616;6.680;2023-07-24T13:16:06;2.92;;;1.92;;
70067;SDS011;57425;51.616;6.680;2023-07-24T13:18:32;3.10;;;1.50;;
70067;SDS011;57425;51.616;6.680;2023-07-24T13:20:58;2.72;;;1.58;;
70067;SDS011;57425;51.616;6.680;2023-07-24T13:23:24;1.38;;;1.10;;
70067;SDS011;57425;51.616;6.680;2023-07-24T13:25:51;2.53;;;1.20;;
70067;SDS011;57425;51.616;6.680;2023-07-24T13:28:17;2.45;;;1.33;;
70067;SDS011;57425;51.616;6.680;2023-07-24T13:30:43;3.08;;;1.40;;
70067;SDS011;57425;51.616;6.680;2023-07-24T13:33:09;3.92;;;0.95;;
70067;SDS011;57425;51.616;6.680;2023-07-24T13:35:35;2.38;;;1.40;;
70067;SDS011;57425;51.616;6.680;2023-07-24T13:38:00;2.13;;;1.10;;
70067;SDS011;57425;51.616;6.680;2023-07-24T13:40:26;3.15;;;1.30;;
70067;SDS011;57425;51.616;6.680;2023-07-24T13:42:52;2.10;;;1.27;;
70067;SDS011;57425;51.616;6.680;2023-07-24T13:45:17;2.67;;;1.70;;
70067;SDS011;57425;51.616;6.680;2023-07-24T13:47:43;4.43;;;2.72;;
70067;SDS011;57425;51.616;6.680;2023-07-24T13:50:09;3.97;;;2.13;;
70067;SDS011;57425;51.616;6.680;2023-07-24T13:52:34;5.63;;;2.60;;
70067;SDS011;57425;51.616;6.680;2023-07-24T13:55:00;2.30;;;1.73;;
70067;SDS011;57425;51.616;6.680;2023-07-24T13:57:26;4.75;;;2.97;;
70067;SDS011;57425;51.616;6.680;2023-07-24T13:59:52;4.90;;;1.80;;
70067;SDS011;57425;51.616;6.680;2023-07-24T14:02:17;3.80;;;2.33;;
70067;SDS011;57425;51.616;6.680;2023-07-24T14:04:43;3.65;;;1.80;;
70067;SDS011;57425;51.616;6.680;2023-07-24T14:07:09;4.60;;;1.88;;
70067;SDS011;57425;51.616;6.680;2023-07-24T14:09:37;2.30;;;1.52;;
70067;SDS011;57425;51.616;6.680;2023-07-24T14:12:03;2.97;;;1.70;;
70067;SDS011;57425;51.616;6.680;2023-07-24T14:14:29;3.40;;;1.65;;
70067;SDS011;57425;51.616;6.680;2023-07-24T14:16:55;2.40;;;1.58;;
70067;SDS011;57425;51.616;6.680;2023-07-24T14:19:20;3.75;;;1.45;;
70067;SDS011;57425;51.616;6.680;2023-07-24T14:21:48;1.42;;;1.25;;
70067;SDS011;57425;51.616;6.680;2023-07-24T14:24:15;2.45;;;1.50;;
70067;SDS011;57425;51.616;6.680;2023-07-24T14:26:40;2.55;;;1.38;;
70067;SDS011;57425;51.616;6.680;2023-07-24T14:29:06;4.20;;;1.45;;
70067;SDS011;57425;51.616;6.680;2023-07-24T14:31:32;3.10;;;1.38;;
70067;SDS011;57425;51.616;6.680;2023-07-24T14:33:57;2.78;;;1.38;;
70067;SDS011;57425;51.616;6.680;2023-07-24T14:36:23;2.10;;;1.50;;
70067;SDS011;57425;51.616;6.680;2023-07-24T14:38:48;2.72;;;1.63;;
70067;SDS011;57425;51.616;6.680;2023-07-24T14:41:15;3.30;;;1.70;;
70067;SDS011;57425;51.616;6.680;2023-07-24T14:43:41;2.80;;;1.35;;
70067;SDS011;57425;51.616;6.680;2023-07-24T14:46:07;2.67;;;1.85;;
70067;SDS011;57425;51.616;6.680;2023-07-24T14:48:33;4.80;;;1.50;;
70067;SDS011;57425;51.616;6.680;2023-07-24T14:50:59;2.60;;;1.60;;
70067;SDS011;57425;51.616;6.680;2023-07-24T14:53:25;4.38;;;1.90;;